Time;durP1;ratioP1;P1;durP2;ratioP2;P2;SDS_P1;SDS_P2;PMS_P1;PMS_P2;Temp;Humidity;BMP_temperature;BMP_pressure;BME280_temperature;BME280_humidity;BME280_pressure;Samples;Min_cycle;Max_cycle;Signal;HPM_P1;HPM_P2
2023/10/03 00:00:15;;;;;;;25.17;14.90;;;19.70;99.90;;;;;;5020513;28;20415;-66
2023/10/03 00:02:41;;;;;;;25.50;15.10;;;19.70;99.90;;;;;;5017113;28;20462;-66
2023/10/03 00:05:08;;;;;;;29.20;14.73;;;19.70;99.90;;;;;;5021376;28;20488;-66
2023/10/03 00:07:34;;;;;;;25.77;14.10;;;19.70;99.90;;;;;;5019798;28;20440;-66
2023/10/03 00:09:59;;;;;;;25.63;14.60;;;19.70;99.90;;;;;;5021359;28;20801;-66
2023/10/03 00:12:25;;;;;;;26.37;15.10;;;19.70;99.90;;;;;;5020555;28;21058;-66
2023/10/03 00:14:51;;;;;;;27.40;14.63;;;19.70;99.90;;;;;;5023919;28;20188;-66
2023/10/03 00:17:16;;;;;;;22.97;13.90;;;19.70;99.90;;;;;;5017152;28;20173;-66
2023/10/03 00:19:42;;;;;;;22.70;13.80;;;19.70;99.90;;;;;;5023920;28;20455;-68
2023/10/03 00:22:07;;;;;;;25.87;14.50;;;19.70;99.90;;;;;;5021491;28;20216;-67
2023/10/03 00:24:33;;;;;;;24.47;14.80;;;19.70;99.90;;;;;;5023310;28;20203;-67
2023/10/03 00:26:59;;;;;;;21.00;13.63;;;19.70;99.90;;;;;;5021133;28;20193;-67
2023/10/03 00:29:29;;;;;;;24.70;14.83;;;19.70;99.90;;;;;;5028294;28;20318;-67
2023/10/03 00:31:58;;;;;;;25.10;13.27;;;19.70;99.90;;;;;;5025797;28;20563;-68
2023/10/03 00:34:24;;;;;;;23.90;15.10;;;19.60;99.90;;;;;;5024190;28;21029;-68
2023/10/03 00:36:52;;;;;;;24.70;14.87;;;19.60;99.90;;;;;;5025279;28;20438;-67
2023/10/03 00:39:18;;;;;;;26.60;15.87;;;19.60;99.90;;;;;;5024549;28;20669;-68
2023/10/03 00:41:44;;;;;;;23.30;14.33;;;19.60;99.90;;;;;;5026658;28;20422;-68
2023/10/03 00:44:10;;;;;;;26.60;15.00;;;19.60;99.90;;;;;;5022285;28;20191;-67
2023/10/03 00:46:35;;;;;;;26.57;15.30;;;19.60;99.90;;;;;;5021117;28;20767;-67
2023/10/03 00:49:09;;;;;;;26.20;14.03;;;19.60;99.90;;;;;;5020961;28;20431;-67
2023/10/03 00:51:35;;;;;;;24.83;14.70;;;19.50;99.90;;;;;;5024465;28;20208;-67
2023/10/03 00:54:02;;;;;;;24.70;15.13;;;19.50;99.90;;;;;;5026319;28;20940;-67
2023/10/03 00:56:28;;;;;;;26.43;15.43;;;19.40;99.90;;;;;;5023802;28;20960;-67
2023/10/03 00:58:53;;;;;;;24.57;15.23;;;19.40;99.90;;;;;;5023259;28;20522;-67
2023/10/03 01:01:19;;;;;;;28.47;15.70;;;19.40;99.90;;;;;;5023210;28;21051;-67
2023/10/03 01:03:47;;;;;;;27.80;15.87;;;19.40;99.90;;;;;;5021640;28;20244;-67
2023/10/03 01:06:15;;;;;;;28.87;16.23;;;19.40;99.90;;;;;;5021117;28;20242;-67
2023/10/03 01:08:41;;;;;;;28.20;15.70;;;19.30;99.90;;;;;;5023268;28;20432;-68
2023/10/03 01:11:13;;;;;;;29.17;14.43;;;19.30;99.90;;;;;;5024351;28;20486;-68
2023/10/03 01:13:39;;;;;;;28.57;16.00;;;19.30;99.90;;;;;;5023506;28;20196;-68
2023/10/03 01:16:05;;;;;;;24.83;14.30;;;19.30;99.90;;;;;;5020662;28;20909;-68
2023/10/03 01:18:32;;;;;;;24.60;15.53;;;19.30;99.90;;;;;;5020696;28;20435;-67
2023/10/03 01:21:02;;;;;;;29.30;15.30;;;19.20;99.90;;;;;;5021526;28;20775;-67
2023/10/03 01:23:33;;;;;;;26.90;14.63;;;19.20;99.90;;;;;;5020844;28;20482;-68
2023/10/03 01:25:59;;;;;;;26.17;16.27;;;19.20;99.90;;;;;;5021550;28;20808;-67
2023/10/03 01:28:25;;;;;;;22.40;12.90;;;19.20;99.90;;;;;;5020651;28;20450;-67
2023/10/03 01:30:51;;;;;;;23.63;13.87;;;19.20;99.90;;;;;;5018896;28;20200;-68
2023/10/03 01:33:17;;;;;;;24.23;14.50;;;19.10;99.90;;;;;;5016210;28;21285;-67
2023/10/03 01:35:43;;;;;;;27.17;15.03;;;19.10;99.90;;;;;;5025420;28;20212;-67
2023/10/03 01:38:08;;;;;;;23.63;14.70;;;19.10;99.90;;;;;;5024357;28;20435;-67
2023/10/03 01:40:34;;;;;;;26.30;14.30;;;19.10;99.90;;;;;;5022648;28;20199;-67
2023/10/03 01:43:00;;;;;;;23.07;14.43;;;19.10;99.90;;;;;;5023490;28;20232;-68
2023/10/03 01:45:27;;;;;;;26.47;15.53;;;19.10;99.90;;;;;;5022686;28;20490;-67
2023/10/03 01:47:57;;;;;;;27.43;16.03;;;19.10;99.90;;;;;;5023706;28;20181;-67
2023/10/03 01:50:24;;;;;;;26.00;14.33;;;19.10;99.90;;;;;;5016814;28;20440;-67
2023/10/03 01:52:51;;;;;;;23.80;15.17;;;19.10;99.90;;;;;;5025302;28;20443;-67
2023/10/03 01:55:18;;;;;;;26.23;14.53;;;19.10;99.90;;;;;;5020641;28;20528;-67
2023/10/03 01:57:45;;;;;;;29.43;15.73;;;19.00;99.90;;;;;;5021914;28;20431;-67
2023/10/03 02:00:26;;;;;;;28.47;14.67;;;19.00;99.90;;;;;;5023495;28;20423;-67
2023/10/03 02:02:56;;;;;;;29.23;14.27;;;19.00;99.90;;;;;;5019417;28;20991;-67
2023/10/03 02:05:23;;;;;;;32.53;15.47;;;19.00;99.90;;;;;;5023964;28;20447;-67
2023/10/03 02:08:04;;;;;;;25.53;15.37;;;19.00;99.90;;;;;;5020838;28;20432;-67
2023/10/03 02:10:30;;;;;;;25.43;14.23;;;19.00;99.90;;;;;;5019910;28;20427;-67
2023/10/03 02:12:56;;;;;;;26.23;14.43;;;19.00;99.90;;;;;;5021102;28;20462;-67
2023/10/03 02:15:26;;;;;;;25.20;14.83;;;19.00;99.90;;;;;;5021403;28;21086;-67
2023/10/03 02:17:53;;;;;;;27.77;15.53;;;19.00;99.90;;;;;;5020978;28;20526;-67
2023/10/03 02:20:25;;;;;;;27.90;15.80;;;18.90;99.90;;;;;;5021822;28;20439;-67
2023/10/03 02:22:55;;;;;;;28.27;16.77;;;18.90;99.90;;;;;;5023090;28;20450;-67
2023/10/03 02:25:30;;;;;;;26.43;17.13;;;18.90;99.90;;;;;;5019972;28;20799;-67
2023/10/03 02:27:56;;;;;;;26.23;16.30;;;18.90;99.90;;;;;;5022914;28;20441;-67
2023/10/03 02:30:25;;;;;;;31.90;17.30;;;18.90;99.90;;;;;;5019799;28;20547;-67
2023/10/03 02:32:53;;;;;;;23.13;15.30;;;18.90;99.90;;;;;;5017827;28;20455;-67
2023/10/03 02:35:22;;;;;;;29.77;15.63;;;18.90;99.90;;;;;;5022042;28;20466;-67
2023/10/03 02:37:52;;;;;;;29.27;16.40;;;18.90;99.90;;;;;;5021525;28;20476;-67
2023/10/03 02:40:22;;;;;;;25.00;16.07;;;18.90;99.90;;;;;;5021124;28;20505;-67
2023/10/03 02:42:54;;;;;;;28.50;15.97;;;18.90;99.90;;;;;;5020552;28;20443;-67
2023/10/03 02:45:23;;;;;;;27.10;15.20;;;18.90;99.90;;;;;;5021463;28;20422;-67
2023/10/03 02:47:55;;;;;;;27.33;15.13;;;18.90;99.90;;;;;;5020578;28;20842;-67
2023/10/03 02:50:23;;;;;;;28.00;15.93;;;18.90;99.90;;;;;;5018339;28;20446;-67
2023/10/03 02:52:48;;;;;;;27.37;15.83;;;18.90;99.90;;;;;;5025509;28;20443;-67
2023/10/03 02:55:15;;;;;;;25.30;15.67;;;18.90;99.90;;;;;;5020385;28;20889;-67
2023/10/03 02:57:41;;;;;;;24.80;14.87;;;18.90;99.90;;;;;;5022412;28;20177;-67
2023/10/03 03:00:15;;;;;;;26.33;17.40;;;18.90;99.90;;;;;;5016491;28;21131;-67
2023/10/03 03:02:48;;;;;;;23.50;14.90;;;18.90;99.90;;;;;;5019676;28;20466;-67
2023/10/03 03:05:17;;;;;;;26.10;16.43;;;18.90;99.90;;;;;;5018187;28;20436;-67
2023/10/03 03:07:48;;;;;;;23.47;15.30;;;19.00;99.90;;;;;;5020815;28;20898;-67
2023/10/03 03:10:21;;;;;;;24.97;14.53;;;19.00;99.90;;;;;;5017823;28;20427;-67
2023/10/03 03:12:48;;;;;;;26.30;15.57;;;19.00;99.90;;;;;;5020123;28;20455;-67
2023/10/03 03:15:23;;;;;;;27.30;15.80;;;19.00;99.90;;;;;;5017346;28;20425;-67
2023/10/03 03:17:51;;;;;;;24.77;15.67;;;19.10;99.90;;;;;;5019666;28;20443;-67
2023/10/03 03:20:18;;;;;;;24.00;13.90;;;19.10;99.90;;;;;;5021806;28;20439;-67
2023/10/03 03:22:47;;;;;;;26.50;14.70;;;19.00;99.90;;;;;;5020358;28;20489;-67
2023/10/03 03:25:20;;;;;;;22.17;13.40;;;19.10;99.90;;;;;;5021105;28;20431;-67
2023/10/03 03:27:47;;;;;;;23.40;15.20;;;19.10;99.90;;;;;;5021254;28;20465;-67
2023/10/03 03:30:56;;;;;;;23.20;15.50;;;19.10;99.90;;;;;;5016531;28;20486;-67
2023/10/03 03:33:04;;;;;;;23.90;14.53;;;19.10;99.90;;;;;;5009553;28;20229;-67
2023/10/03 03:35:37;;;;;;;27.47;15.47;;;19.10;99.90;;;;;;5021378;28;20557;-67
2023/10/03 03:38:05;;;;;;;31.93;16.67;;;19.10;99.90;;;;;;5021613;28;20434;-67
2023/10/03 03:40:34;;;;;;;23.07;14.60;;;19.10;99.90;;;;;;5018580;28;20562;-67
2023/10/03 03:43:00;;;;;;;27.27;16.20;;;19.10;99.90;;;;;;5017419;28;20525;-67
2023/10/03 03:45:27;;;;;;;22.03;15.80;;;19.10;99.90;;;;;;5019883;28;20423;-67
2023/10/03 03:47:56;;;;;;;26.97;14.60;;;19.10;99.90;;;;;;5022228;28;20584;-67
2023/10/03 03:50:22;;;;;;;21.60;14.47;;;19.10;99.90;;;;;;5018649;28;20442;-67
2023/10/03 03:52:51;;;;;;;22.57;14.80;;;19.00;99.90;;;;;;5016472;28;20455;-68
2023/10/03 03:55:17;;;;;;;22.37;14.87;;;19.10;99.90;;;;;;5020973;28;20794;-67
2023/10/03 03:57:46;;;;;;;20.80;15.57;;;19.00;99.90;;;;;;5022330;28;20419;-67
2023/10/03 04:00:17;;;;;;;27.50;16.23;;;19.00;99.90;;;;;;5026168;28;20430;-67
2023/10/03 04:02:43;;;;;;;28.53;15.07;;;19.00;99.90;;;;;;5022132;28;20987;-67
2023/10/03 04:05:12;;;;;;;23.97;14.67;;;19.00;99.90;;;;;;5024068;28;20426;-67
2023/10/03 04:07:38;;;;;;;24.30;14.27;;;19.00;99.90;;;;;;5022772;28;20188;-67
2023/10/03 04:10:10;;;;;;;25.77;14.13;;;19.00;99.90;;;;;;5025755;28;20430;-67
2023/10/03 04:12:41;;;;;;;27.00;14.63;;;19.00;99.90;;;;;;5023161;28;21014;-67
2023/10/03 04:15:15;;;;;;;25.33;14.07;;;18.90;99.90;;;;;;5025252;28;20453;-67
2023/10/03 04:17:41;;;;;;;23.33;16.10;;;18.90;99.90;;;;;;5022277;28;20517;-67
2023/10/03 04:22:52;;;;;;;25.47;13.63;;;18.90;99.90;;;;;;5022514;28;20459;-67
2023/10/03 04:25:19;;;;;;;25.47;15.20;;;18.90;99.90;;;;;;5022942;28;20446;-67
2023/10/03 04:27:47;;;;;;;20.87;13.60;;;18.80;99.90;;;;;;5022026;28;20427;-67
2023/10/03 04:30:13;;;;;;;24.13;13.50;;;18.80;99.90;;;;;;5019286;28;20439;-67
2023/10/03 04:32:41;;;;;;;30.47;14.80;;;18.80;99.90;;;;;;5022174;28;20557;-67
2023/10/03 04:35:13;;;;;;;22.13;13.40;;;18.70;99.90;;;;;;5019810;28;20434;-67
2023/10/03 04:37:42;;;;;;;22.37;14.47;;;18.70;99.90;;;;;;5021057;28;20435;-68
2023/10/03 04:40:10;;;;;;;25.57;13.60;;;18.60;99.90;;;;;;5025651;28;20804;-67
2023/10/03 04:42:38;;;;;;;21.73;13.87;;;18.70;99.90;;;;;;5018332;28;20481;-67
2023/10/03 04:45:06;;;;;;;24.33;13.77;;;18.60;99.90;;;;;;5021736;28;20435;-67
2023/10/03 04:47:32;;;;;;;23.83;13.70;;;18.60;99.90;;;;;;5022253;28;20427;-67
2023/10/03 04:50:01;;;;;;;19.70;12.67;;;18.60;99.90;;;;;;5025479;28;20427;-67
2023/10/03 04:52:27;;;;;;;22.33;13.97;;;18.50;99.90;;;;;;5023815;28;20477;-67
2023/10/03 04:54:53;;;;;;;25.93;13.60;;;18.60;99.90;;;;;;5018368;28;20427;-67
2023/10/03 04:57:18;;;;;;;21.77;13.17;;;18.50;99.90;;;;;;5022678;28;20631;-67
2023/10/03 04:59:44;;;;;;;26.20;14.10;;;18.50;99.90;;;;;;5017986;28;20184;-67
2023/10/03 05:02:10;;;;;;;22.70;13.50;;;18.50;99.90;;;;;;5022275;28;20216;-68
2023/10/03 05:04:36;;;;;;;21.80;13.10;;;18.50;99.90;;;;;;5021705;28;20271;-67
2023/10/03 05:07:02;;;;;;;21.97;13.10;;;18.40;99.90;;;;;;5025653;28;20537;-67
2023/10/03 05:09:30;;;;;;;25.43;14.00;;;18.40;99.90;;;;;;5023109;28;20649;-67
2023/10/03 05:11:56;;;;;;;21.00;12.40;;;18.50;99.90;;;;;;5024794;28;20485;-68
2023/10/03 05:14:21;;;;;;;23.20;13.97;;;18.50;99.90;;;;;;5019528;28;20430;-67
2023/10/03 05:16:50;;;;;;;25.77;12.77;;;18.40;99.90;;;;;;5021749;28;20241;-66
2023/10/03 05:19:17;;;;;;;19.30;12.67;;;18.30;99.90;;;;;;5023102;28;20181;-67
2023/10/03 05:21:44;;;;;;;19.00;11.40;;;18.30;99.90;;;;;;5021809;28;20435;-67
2023/10/03 05:24:10;;;;;;;20.87;11.83;;;18.30;99.90;;;;;;5020795;28;20797;-67
2023/10/03 05:26:38;;;;;;;24.30;14.47;;;18.40;99.90;;;;;;5023145;28;20431;-67
2023/10/03 05:29:03;;;;;;;18.97;11.93;;;18.40;99.90;;;;;;5017900;28;20955;-67
2023/10/03 05:31:29;;;;;;;20.10;11.67;;;18.30;99.90;;;;;;5020026;28;20502;-67
2023/10/03 05:33:56;;;;;;;19.17;11.93;;;18.40;99.90;;;;;;5017575;28;20267;-67
2023/10/03 05:36:22;;;;;;;20.43;12.03;;;18.40;99.90;;;;;;5023778;28;20197;-67
2023/10/03 05:38:48;;;;;;;21.50;12.50;;;18.30;99.90;;;;;;5026611;28;20516;-67
2023/10/03 05:41:18;;;;;;;20.43;11.70;;;18.30;99.90;;;;;;5024712;28;20449;-67
2023/10/03 05:43:44;;;;;;;17.47;11.70;;;18.30;99.90;;;;;;5020198;28;20462;-67
2023/10/03 05:46:11;;;;;;;19.77;11.93;;;18.30;99.90;;;;;;5025800;28;20430;-67
2023/10/03 05:48:36;;;;;;;28.43;20.70;;;18.40;99.90;;;;;;5020136;28;20189;-67
2023/10/03 05:51:02;;;;;;;21.00;12.63;;;18.40;99.90;;;;;;5028213;28;20465;-67
2023/10/03 05:53:27;;;;;;;23.00;13.23;;;18.40;99.90;;;;;;5021898;28;20204;-67
2023/10/03 05:55:53;;;;;;;21.37;12.10;;;18.30;99.90;;;;;;5027414;28;20650;-67
2023/10/03 05:58:19;;;;;;;19.40;12.50;;;18.40;99.90;;;;;;5027921;28;20184;-67
2023/10/03 06:00:45;;;;;;;18.53;10.80;;;18.40;99.90;;;;;;5016417;28;20188;-68
2023/10/03 06:03:10;;;;;;;21.30;11.00;;;18.40;99.90;;;;;;5020403;28;20196;-67
2023/10/03 06:05:36;;;;;;;16.30;11.60;;;18.30;99.90;;;;;;5015059;28;20427;-67
2023/10/03 06:08:01;;;;;;;18.20;11.33;;;18.40;99.90;;;;;;5022942;28;20188;-67
2023/10/03 06:10:29;;;;;;;18.30;10.53;;;18.40;99.90;;;;;;5023348;28;20207;-68
2023/10/03 06:12:55;;;;;;;18.60;12.13;;;18.40;99.90;;;;;;5017244;28;20197;-67
2023/10/03 06:15:21;;;;;;;15.33;9.70;;;18.40;99.90;;;;;;5023345;28;20544;-67
2023/10/03 06:17:46;;;;;;;17.50;10.83;;;18.30;99.90;;;;;;5020903;28;20185;-67
2023/10/03 06:20:14;;;;;;;17.03;9.57;;;18.40;99.90;;;;;;5021981;28;20191;-67
2023/10/03 06:22:41;;;;;;;18.50;10.40;;;18.40;99.90;;;;;;5022411;28;20366;-67
2023/10/03 06:25:07;;;;;;;14.30;9.10;;;18.50;99.90;;;;;;5022927;28;20987;-67
2023/10/03 06:27:33;;;;;;;18.47;10.37;;;18.60;99.90;;;;;;5022172;28;20451;-67
2023/10/03 06:29:59;;;;;;;15.60;9.00;;;18.80;99.90;;;;;;5019729;28;20467;-67
2023/10/03 06:32:25;;;;;;;13.03;8.53;;;18.90;99.90;;;;;;5021244;28;20213;-67
2023/10/03 06:34:50;;;;;;;13.70;9.13;;;19.00;99.90;;;;;;5021139;28;20494;-67
2023/10/03 06:37:16;;;;;;;11.23;8.00;;;19.10;99.90;;;;;;5022550;28;20554;-67
2023/10/03 06:39:42;;;;;;;14.10;8.67;;;19.20;99.90;;;;;;5019052;28;20977;-67
2023/10/03 06:42:07;;;;;;;16.17;8.70;;;19.30;99.90;;;;;;5019015;28;20601;-68
2023/10/03 06:44:36;;;;;;;12.90;8.93;;;19.30;99.90;;;;;;5020946;28;20188;-69
2023/10/03 06:47:04;;;;;;;13.60;8.13;;;19.30;99.90;;;;;;5021336;28;20485;-68
2023/10/03 06:49:29;;;;;;;12.23;8.30;;;19.40;99.90;;;;;;5022259;28;20517;-68
2023/10/03 06:51:57;;;;;;;13.37;8.27;;;19.40;99.90;;;;;;5020568;28;20557;-68
2023/10/03 06:54:24;;;;;;;14.57;8.33;;;19.50;99.90;;;;;;5022633;28;20181;-66
2023/10/03 06:56:50;;;;;;;10.80;7.60;;;19.60;99.90;;;;;;5020860;28;20439;-66
2023/10/03 06:59:16;;;;;;;11.43;7.37;;;19.70;99.90;;;;;;5022106;28;20427;-68
2023/10/03 07:01:42;;;;;;;12.00;7.77;;;19.80;99.90;;;;;;5015273;28;20200;-68
2023/10/03 07:04:07;;;;;;;11.77;8.03;;;19.80;99.90;;;;;;5020978;28;20411;-68
2023/10/03 07:06:34;;;;;;;12.07;7.80;;;19.90;99.90;;;;;;5022311;28;20203;-68
2023/10/03 07:09:01;;;;;;;10.60;7.07;;;20.00;99.90;;;;;;5017034;28;20582;-66
2023/10/03 07:11:27;;;;;;;13.90;8.47;;;20.10;99.90;;;;;;5014525;28;20526;-68
2023/10/03 07:13:52;;;;;;;9.00;6.80;;;20.10;99.90;;;;;;5018059;28;20486;-66
2023/10/03 07:16:18;;;;;;;11.30;8.00;;;20.20;99.90;;;;;;5017710;28;21005;-67
2023/10/03 07:18:44;;;;;;;9.73;7.23;;;20.20;99.90;;;;;;5017552;28;20898;-66
2023/10/03 07:21:10;;;;;;;10.30;7.37;;;20.30;99.90;;;;;;5016411;28;20447;-67
2023/10/03 07:23:36;;;;;;;13.30;6.90;;;20.40;99.90;;;;;;5009404;28;20205;-67
2023/10/03 07:26:02;;;;;;;11.10;7.03;;;20.40;99.90;;;;;;5018250;28;20196;-67
2023/10/03 07:28:27;;;;;;;10.03;7.10;;;20.40;99.90;;;;;;5020778;28;20968;-67
2023/10/03 07:30:53;;;;;;;10.93;8.17;;;20.40;99.90;;;;;;5015296;28;20232;-67
2023/10/03 07:33:22;;;;;;;10.40;7.23;;;20.40;99.90;;;;;;5021994;28;20210;-67
2023/10/03 07:35:47;;;;;;;14.57;7.67;;;20.40;99.90;;;;;;5015060;28;20195;-67
2023/10/03 07:38:14;;;;;;;10.40;8.30;;;20.50;99.90;;;;;;5012634;28;21163;-68
2023/10/03 07:40:41;;;;;;;11.20;7.50;;;20.50;99.90;;;;;;5015677;28;20647;-68
2023/10/03 07:43:09;;;;;;;9.93;7.40;;;20.50;99.90;;;;;;5014717;28;20461;-67
2023/10/03 07:45:38;;;;;;;9.97;7.80;;;20.50;99.90;;;;;;5009387;28;20516;-67
2023/10/03 07:48:09;;;;;;;10.77;7.20;;;20.50;99.90;;;;;;5012475;28;20510;-68
2023/10/03 07:50:36;;;;;;;10.47;7.33;;;20.50;99.90;;;;;;5011582;28;20462;-68
2023/10/03 07:53:11;;;;;;;10.27;6.67;;;20.50;99.90;;;;;;5011993;28;20844;-67
2023/10/03 07:55:36;;;;;;;9.00;6.47;;;20.50;99.90;;;;;;5019234;28;20548;-68
2023/10/03 07:58:02;;;;;;;10.83;6.80;;;20.60;99.90;;;;;;5016843;28;20940;-68
2023/10/03 08:00:28;;;;;;;11.37;7.33;;;20.60;99.90;;;;;;5015855;28;20181;-68
2023/10/03 08:02:53;;;;;;;9.10;6.80;;;20.70;99.90;;;;;;5018847;28;20704;-67
2023/10/03 08:05:20;;;;;;;9.07;6.93;;;20.70;99.90;;;;;;5015403;28;20187;-67
2023/10/03 08:07:47;;;;;;;10.70;8.07;;;20.70;99.90;;;;;;5016468;28;20173;-68
2023/10/03 08:10:17;;;;;;;10.33;6.83;;;20.80;99.90;;;;;;5018369;28;20433;-67
2023/10/03 08:12:44;;;;;;;10.30;6.47;;;20.80;99.90;;;;;;5007074;28;20470;-67
2023/10/03 08:15:17;;;;;;;9.90;6.77;;;20.90;99.90;;;;;;5018534;28;20419;-67
2023/10/03 08:17:44;;;;;;;8.77;7.07;;;20.90;99.90;;;;;;5015258;28;20437;-67
2023/10/03 08:20:14;;;;;;;9.73;6.53;;;21.00;99.90;;;;;;5018281;28;20501;-68
2023/10/03 08:22:41;;;;;;;11.50;7.90;;;21.10;99.90;;;;;;5016367;28;20577;-67
2023/10/03 08:25:10;;;;;;;7.47;6.10;;;21.10;99.90;;;;;;5021358;28;20419;-67
2023/10/03 08:27:36;;;;;;;9.67;7.27;;;21.20;99.90;;;;;;5016247;28;20440;-67
2023/10/03 08:30:03;;;;;;;12.67;6.27;;;21.40;99.90;;;;;;5019914;28;20442;-67
2023/10/03 08:32:31;;;;;;;10.37;6.83;;;21.50;99.90;;;;;;5017366;28;20645;-67
2023/10/03 08:34:57;;;;;;;9.57;6.43;;;21.70;99.90;;;;;;5018032;28;20842;-67
2023/10/03 08:37:22;;;;;;;10.40;6.83;;;21.80;99.90;;;;;;5028151;28;20976;-67
2023/10/03 08:39:49;;;;;;;7.30;6.23;;;22.00;99.90;;;;;;5020486;28;20422;-68
2023/10/03 08:42:39;;;;;;;7.77;6.20;;;22.20;99.90;;;;;;5022432;28;20205;-65
2023/10/03 08:45:22;;;;;;;11.13;6.37;;;22.50;99.90;;;;;;5021398;28;20442;-65
2023/10/03 08:47:53;;;;;;;8.27;6.30;;;22.70;99.90;;;;;;5021192;28;20471;-65
2023/10/03 08:50:34;;;;;;;8.93;6.93;;;23.00;99.90;;;;;;5021809;28;20424;-68
2023/10/03 08:53:16;;;;;;;7.77;5.77;;;23.30;99.90;;;;;;5021752;28;20482;-67
2023/10/03 08:55:46;;;;;;;8.23;6.03;;;23.50;99.90;;;;;;5013662;28;20999;-67
2023/10/03 08:58:13;;;;;;;7.70;6.13;;;23.70;99.90;;;;;;5022229;28;20788;-66
2023/10/03 09:01:02;;;;;;;7.57;6.10;;;23.90;99.90;;;;;;5017576;28;20541;-67
2023/10/03 09:03:46;;;;;;;7.27;5.80;;;24.20;99.90;;;;;;5019359;28;20450;-67
2023/10/03 09:06:19;;;;;;;6.87;5.43;;;24.50;99.90;;;;;;5023832;28;20450;-66
2023/10/03 09:09:08;;;;;;;8.37;6.03;;;24.50;99.90;;;;;;5021175;28;21146;-66
2023/10/03 09:11:37;;;;;;;7.77;6.00;;;24.60;99.90;;;;;;5022786;28;21015;-67
2023/10/03 09:14:05;;;;;;;8.93;6.20;;;24.70;99.90;;;;;;5015000;28;20457;-66
2023/10/03 09:16:30;;;;;;;8.40;6.33;;;24.80;99.90;;;;;;5031883;28;20431;-66
2023/10/03 09:18:56;;;;;;;8.27;6.30;;;24.90;99.90;;;;;;5012919;28;20446;-70
2023/10/03 09:21:27;;;;;;;7.30;6.23;;;25.00;99.90;;;;;;5015065;28;20669;-68
2023/10/03 09:24:09;;;;;;;8.87;5.97;;;25.00;99.90;;;;;;5016058;28;20204;-68
2023/10/03 09:26:51;;;;;;;14.63;6.53;;;25.00;99.90;;;;;;5015582;28;20427;-68
2023/10/03 09:29:19;;;;;;;8.27;5.90;;;25.10;99.90;;;;;;5014720;28;20428;-68
2023/10/03 09:31:47;;;;;;;6.63;5.87;;;25.10;99.90;;;;;;5017106;28;20495;-68
2023/10/03 09:34:14;;;;;;;8.50;6.40;;;25.20;99.90;;;;;;5016635;28;20472;-69
2023/10/03 09:36:40;;;;;;;7.13;5.80;;;25.20;99.90;;;;;;5019703;28;21113;-69
2023/10/03 09:39:20;;;;;;;10.53;6.20;;;25.20;99.90;;;;;;5015944;28;20803;-68
2023/10/03 09:41:54;;;;;;;11.43;7.10;;;25.30;99.90;;;;;;5016708;28;20445;-67
2023/10/03 09:44:29;;;;;;;11.50;6.33;;;25.30;99.90;;;;;;5013082;28;20863;-67
2023/10/03 09:47:06;;;;;;;9.40;6.60;;;25.40;99.90;;;;;;5015416;28;20970;-67
2023/10/03 09:49:38;;;;;;;9.80;6.00;;;25.60;99.90;;;;;;5016646;28;20474;-67
2023/10/03 09:52:07;;;;;;;8.57;6.20;;;25.60;99.90;;;;;;5013888;28;20498;-67
2023/10/03 09:54:36;;;;;;;8.80;6.47;;;25.60;99.90;;;;;;5016367;28;20435;-66
2023/10/03 09:57:15;;;;;;;11.27;7.03;;;25.70;99.90;;;;;;5018533;28;20427;-67
2023/10/03 09:59:42;;;;;;;9.17;6.00;;;25.80;99.90;;;;;;5021598;28;20952;-67
2023/10/03 10:02:12;;;;;;;7.50;6.60;;;25.80;99.90;;;;;;5017755;28;20458;-67
2023/10/03 10:04:40;;;;;;;8.77;6.80;;;25.50;99.90;;;;;;5016165;28;20442;-66
2023/10/03 10:07:16;;;;;;;12.73;6.37;;;25.50;99.90;;;;;;5019762;28;20431;-66
2023/10/03 10:09:59;;;;;;;9.50;6.80;;;25.50;99.90;;;;;;5017624;28;20439;-67
2023/10/03 10:12:25;;;;;;;9.50;7.60;;;25.50;99.90;;;;;;5016600;28;20469;-67
2023/10/03 10:15:00;;;;;;;9.87;6.70;;;25.60;99.90;;;;;;5016634;28;20809;-66
2023/10/03 10:17:45;;;;;;;11.40;7.03;;;25.70;99.90;;;;;;5016419;28;20180;-67
2023/10/03 10:20:17;;;;;;;9.20;7.60;;;25.90;99.90;;;;;;5012992;28;20894;-65
2023/10/03 10:22:58;;;;;;;14.77;10.53;;;26.00;99.90;;;;;;5017941;28;20449;-67
2023/10/03 10:25:41;;;;;;;9.60;7.70;;;26.10;99.90;;;;;;5016098;28;20993;-66
2023/10/03 10:28:23;;;;;;;9.10;6.40;;;26.00;99.90;;;;;;5018490;28;20439;-66
2023/10/03 10:31:10;;;;;;;8.87;7.50;;;25.90;99.90;;;;;;5016763;28;20442;-67
2023/10/03 10:33:36;;;;;;;11.37;6.83;;;25.90;99.90;;;;;;5017751;28;20450;-67
2023/10/03 10:36:07;;;;;;;9.30;7.40;;;25.90;99.90;;;;;;5014336;28;20451;-66
2023/10/03 10:38:32;;;;;;;10.67;7.00;;;25.80;99.90;;;;;;5020629;28;20271;-65
2023/10/03 10:44:13;;;;;;;10.40;7.07;;;25.80;99.90;;;;;;5017148;28;20619;-67
2023/10/03 10:46:46;;;;;;;8.67;7.17;;;25.80;99.90;;;;;;5017909;28;20474;-67
2023/10/03 10:49:30;;;;;;;10.97;6.30;;;25.80;99.90;;;;;;5015886;28;20544;-65
2023/10/03 10:52:09;;;;;;;12.53;7.10;;;25.60;99.90;;;;;;5018772;28;20474;-65
2023/10/03 10:54:38;;;;;;;12.83;7.60;;;25.30;99.90;;;;;;5014490;28;20485;-66
2023/10/03 10:57:06;;;;;;;18.33;8.13;;;25.20;99.90;;;;;;5016002;28;20430;-66
2023/10/03 10:59:37;;;;;;;11.20;7.33;;;25.30;99.90;;;;;;5019546;28;20430;-66
2023/10/03 11:02:04;;;;;;;9.93;7.47;;;25.30;99.90;;;;;;5012391;28;20458;-66
2023/10/03 11:04:33;;;;;;;11.17;7.60;;;25.30;99.90;;;;;;5011411;28;20435;-66
2023/10/03 11:06:58;;;;;;;9.53;7.27;;;25.20;99.90;;;;;;5015294;28;20929;-66
2023/10/03 11:09:25;;;;;;;10.10;7.03;;;25.10;99.90;;;;;;5018364;28;20439;-67
2023/10/03 11:11:51;;;;;;;9.33;7.13;;;25.10;99.90;;;;;;5017646;28;24972;-67
2023/10/03 11:14:31;;;;;;;13.80;7.13;;;25.00;99.90;;;;;;5013411;28;20439;-67
2023/10/03 11:16:58;;;;;;;8.77;7.23;;;24.90;99.90;;;;;;5014917;28;21015;-67
2023/10/03 11:19:24;;;;;;;8.50;6.87;;;24.90;99.90;;;;;;5017320;28;20440;-69
2023/10/03 11:21:51;;;;;;;15.60;6.73;;;24.80;99.90;;;;;;5014732;28;20446;-68
2023/10/03 11:24:21;;;;;;;10.50;6.00;;;24.70;99.90;;;;;;5010898;28;20443;-68
2023/10/03 11:26:57;;;;;;;15.03;7.07;;;24.70;99.90;;;;;;5020228;28;20431;-69
2023/10/03 11:29:48;;;;;;;10.17;6.70;;;24.80;99.90;;;;;;5018405;28;20438;-69
2023/10/03 11:32:33;;;;;;;8.97;5.60;;;24.70;99.90;;;;;;5013510;28;20482;-69
2023/10/03 11:35:13;;;;;;;10.13;5.77;;;24.60;99.90;;;;;;5016046;28;20516;-69
2023/10/03 11:37:43;;;;;;;9.20;6.30;;;24.70;99.90;;;;;;5022882;28;20794;-68
2023/10/03 11:40:14;;;;;;;6.70;5.70;;;24.70;99.90;;;;;;5018660;28;20431;-67
2023/10/03 11:42:48;;;;;;;6.90;5.17;;;24.70;99.90;;;;;;5014027;28;20457;-68
2023/10/03 11:45:19;;;;;;;8.53;5.47;;;24.80;99.90;;;;;;5017767;28;20853;-68
2023/10/03 11:47:56;;;;;;;7.47;5.87;;;24.70;99.90;;;;;;5019797;28;21220;-68
2023/10/03 11:50:22;;;;;;;8.07;5.40;;;24.70;99.90;;;;;;5011798;28;20431;-67
2023/10/03 11:52:48;;;;;;;9.70;6.00;;;24.70;99.90;;;;;;5019736;28;20545;-67
2023/10/03 11:55:15;;;;;;;9.63;5.10;;;24.70;99.90;;;;;;5020185;28;20172;-67
2023/10/03 11:57:42;;;;;;;9.53;5.30;;;24.70;99.90;;;;;;5022425;28;20468;-68
2023/10/03 12:00:14;;;;;;;7.33;5.03;;;24.60;99.90;;;;;;5020142;28;20419;-68
2023/10/03 12:02:47;;;;;;;7.53;5.20;;;24.60;99.90;;;;;;5013605;28;20447;-68
2023/10/03 12:05:13;;;;;;;8.50;5.80;;;24.60;99.90;;;;;;5017222;28;20435;-68
2023/10/03 12:07:39;;;;;;;8.93;6.40;;;24.70;99.90;;;;;;5013255;28;20450;-68
2023/10/03 12:10:12;;;;;;;15.13;6.60;;;24.70;99.90;;;;;;5021366;28;20408;-69
2023/10/03 12:12:38;;;;;;;8.67;5.40;;;24.70;99.90;;;;;;5021099;28;20474;-68
2023/10/03 12:15:12;;;;;;;11.40;5.60;;;24.80;99.90;;;;;;5020130;28;20481;-68
2023/10/03 12:17:50;;;;;;;13.20;4.63;;;24.80;99.90;;;;;;5026434;28;20421;-68
2023/10/03 12:20:18;;;;;;;9.90;6.27;;;24.70;99.90;;;;;;5022026;28;20534;-68
2023/10/03 12:22:52;;;;;;;7.50;4.90;;;24.70;99.90;;;;;;5024367;28;20439;-68
2023/10/03 12:25:21;;;;;;;11.73;5.67;;;24.80;99.90;;;;;;5024070;28;20438;-68
2023/10/03 12:27:47;;;;;;;13.20;5.50;;;24.90;99.90;;;;;;5023484;28;20419;-68
2023/10/03 12:30:15;;;;;;;6.53;5.00;;;25.20;99.90;;;;;;5022634;28;20445;-68
2023/10/03 12:32:44;;;;;;;9.50;5.23;;;25.20;99.90;;;;;;5017005;28;20315;-68
2023/10/03 12:35:10;;;;;;;12.20;5.87;;;25.00;99.90;;;;;;5012133;28;20546;-68
2023/10/03 12:37:40;;;;;;;8.80;4.60;;;25.10;99.90;;;;;;5020850;28;20447;-68
2023/10/03 12:40:15;;;;;;;12.13;5.97;;;25.30;99.90;;;;;;5019468;28;20431;-68
2023/10/03 12:42:48;;;;;;;7.83;4.97;;;25.50;99.90;;;;;;5017538;28;20451;-68
2023/10/03 12:45:17;;;;;;;9.60;5.43;;;25.40;99.90;;;;;;5017671;28;20434;-68
2023/10/03 12:47:47;;;;;;;10.20;5.43;;;25.50;99.90;;;;;;5022446;28;20433;-66